Time;durP1;ratioP1;P1;durP2;ratioP2;P2;SDS_P1;SDS_P2;PMS_P1;PMS_P2;Temp;Humidity;BMP_temperature;BMP_pressure;BME280_temperature;BME280_humidity;BME280_pressure;Samples;Min_cycle;Max_cycle;Signal;HPM_P1;HPM_P2
2020/10/08 00:01:43;;;;;;;;;13.25;10.50;;;;;;;;3724694;37;21052;-55
2020/10/08 00:04:10;;;;;;;;;10.50;10.50;;;;;;;;3724779;37;21220;-54
2020/10/08 00:06:37;;;;;;;;;9.25;9.00;;;;;;;;3725283;38;21179;-54
2020/10/08 00:09:03;;;;;;;;;10.00;10.00;;;;;;;;3725211;38;21013;-54
2020/10/08 00:11:29;;;;;;;;;10.00;9.50;;;;;;;;3725280;38;18035;-56
2020/10/08 00:13:56;;;;;;;;;9.75;9.50;;;;;;;;3725313;37;21023;-54
2020/10/08 00:16:23;;;;;;;;;8.50;8.50;;;;;;;;3725243;37;20929;-55
2020/10/08 00:18:49;;;;;;;;;10.50;9.75;;;;;;;;3725191;37;20937;-55
2020/10/08 00:21:15;;;;;;;;;10.25;9.00;;;;;;;;3725336;38;18008;-57
2020/10/08 00:23:41;;;;;;;;;11.50;9.75;;;;;;;;3725308;38;17996;-57
2020/10/08 00:26:07;;;;;;;;;8.00;8.00;;;;;;;;3725372;37;18003;-57
2020/10/08 00:28:33;;;;;;;;;8.50;7.75;;;;;;;;3725338;37;17976;-57
2020/10/08 00:31:00;;;;;;;;;11.00;11.00;;;;;;;;3725366;37;18003;-57
2020/10/08 00:33:28;;;;;;;;;6.00;6.00;;;;;;;;3725310;38;21125;-57
2020/10/08 00:35:54;;;;;;;;;9.25;8.00;;;;;;;;3725194;37;21089;-57
2020/10/08 00:38:21;;;;;;;;;9.00;8.00;;;;;;;;3725386;37;21088;-57
2020/10/08 00:40:48;;;;;;;;;10.00;8.00;;;;;;;;3725443;37;20895;-58
2020/10/08 00:43:15;;;;;;;;;8.00;7.50;;;;;;;;3725049;38;17979;-57
2020/10/08 00:45:41;;;;;;;;;9.75;8.50;;;;;;;;3725371;38;20892;-58
2020/10/08 00:48:15;;;;;;;;;6.75;6.50;;;;;;;;3725401;38;17976;-56
2020/10/08 00:50:41;;;;;;;;;10.75;8.75;;;;;;;;3725422;38;20865;-55
2020/10/08 00:53:07;;;;;;;;;8.25;7.25;;;;;;;;3725277;37;21116;-55
2020/10/08 00:55:34;;;;;;;;;9.75;9.25;;;;;;;;3725401;37;17965;-55
2020/10/08 00:58:04;;;;;;;;;10.50;9.75;;;;;;;;3725204;37;20922;-54
2020/10/08 01:00:32;;;;;;;;;10.75;9.25;;;;;;;;3724706;37;17940;-57
2020/10/08 01:02:58;;;;;;;;;9.75;9.00;;;;;;;;3725239;37;20942;-57
2020/10/08 01:05:24;;;;;;;;;10.25;8.00;;;;;;;;3725435;37;17940;-55
2020/10/08 01:07:50;;;;;;;;;10.75;10.00;;;;;;;;3725406;37;17947;-56
2020/10/08 01:10:17;;;;;;;;;8.00;8.00;;;;;;;;3725298;37;17936;-55
2020/10/08 01:12:54;;;;;;;;;7.50;7.00;;;;;;;;3725474;37;17903;-55
2020/10/08 01:15:22;;;;;;;;;9.00;8.50;;;;;;;;3725315;38;21021;-54
2020/10/08 01:17:48;;;;;;;;;9.00;8.25;;;;;;;;3725236;37;20852;-56
2020/10/08 01:20:14;;;;;;;;;9.50;8.00;;;;;;;;3725348;38;21010;-57
2020/10/08 01:22:58;;;;;;;;;11.50;9.00;;;;;;;;3725257;37;20880;-54
2020/10/08 01:25:30;;;;;;;;;7.00;6.25;;;;;;;;3725267;38;20895;-55
2020/10/08 01:27:56;;;;;;;;;10.25;10.25;;;;;;;;3725272;38;20810;-57
2020/10/08 01:30:26;;;;;;;;;8.25;8.25;;;;;;;;3725242;38;20901;-56
2020/10/08 01:32:52;;;;;;;;;10.00;9.00;;;;;;;;3725296;37;17918;-56
2020/10/08 01:35:19;;;;;;;;;9.50;9.00;;;;;;;;3725222;38;20844;-56
2020/10/08 01:37:50;;;;;;;;;9.75;9.25;;;;;;;;3725354;37;20773;-55
2020/10/08 01:40:18;;;;;;;;;10.50;9.25;;;;;;;;3725535;37;20800;-55
2020/10/08 01:42:45;;;;;;;;;9.50;8.75;;;;;;;;3725404;37;20980;-56
2020/10/08 01:45:13;;;;;;;;;11.00;8.00;;;;;;;;3727295;37;20668;-57
2020/10/08 01:47:39;;;;;;;;;8.25;8.25;;;;;;;;3725271;38;20954;-55
2020/10/08 01:50:09;;;;;;;;;7.00;7.00;;;;;;;;3725185;37;20861;-57
2020/10/08 01:52:36;;;;;;;;;8.75;8.75;;;;;;;;3725414;38;20775;-57
2020/10/08 01:55:02;;;;;;;;;8.00;8.00;;;;;;;;3725014;37;20818;-57
2020/10/08 01:57:29;;;;;;;;;9.00;8.25;;;;;;;;3725355;37;20967;-56
2020/10/08 01:59:55;;;;;;;;;8.00;7.00;;;;;;;;3725260;37;20806;-56
2020/10/08 02:02:22;;;;;;;;;7.25;7.25;;;;;;;;3725431;38;20950;-55
2020/10/08 02:04:53;;;;;;;;;8.00;8.00;;;;;;;;3725458;37;21013;-57
2020/10/08 02:07:19;;;;;;;;;8.75;8.00;;;;;;;;3725265;37;20952;-57
2020/10/08 02:09:45;;;;;;;;;11.00;9.25;;;;;;;;3725172;38;20791;-56
2020/10/08 02:12:12;;;;;;;;;8.75;8.50;;;;;;;;3724869;37;17830;-55
2020/10/08 02:14:38;;;;;;;;;9.00;8.00;;;;;;;;3725379;37;20761;-57
2020/10/08 02:17:05;;;;;;;;;8.00;8.00;;;;;;;;3725265;38;20714;-57
2020/10/08 02:19:31;;;;;;;;;9.00;8.00;;;;;;;;3725254;37;20755;-57
2020/10/08 02:21:57;;;;;;;;;8.75;7.75;;;;;;;;3725256;37;20928;-57
2020/10/08 02:24:24;;;;;;;;;9.25;8.00;;;;;;;;3725336;38;20724;-56
2020/10/08 02:26:50;;;;;;;;;9.25;7.50;;;;;;;;3725270;37;17838;-53
2020/10/08 02:29:16;;;;;;;;;8.00;8.00;;;;;;;;3725230;37;20926;-54
2020/10/08 02:31:47;;;;;;;;;7.00;7.00;;;;;;;;3725399;38;20919;-54
2020/10/08 02:34:13;;;;;;;;;11.50;8.50;;;;;;;;3725360;38;20908;-55
2020/10/08 02:36:39;;;;;;;;;8.00;8.00;;;;;;;;3725225;38;20953;-56
2020/10/08 02:39:24;;;;;;;;;10.50;9.00;;;;;;;;3725397;37;17807;-58
2020/10/08 02:41:51;;;;;;;;;7.75;7.00;;;;;;;;3725346;37;20939;-61
2020/10/08 02:44:18;;;;;;;;;8.25;7.50;;;;;;;;3725288;37;20906;-59
2020/10/08 02:46:47;;;;;;;;;7.75;7.00;;;;;;;;3725384;37;20705;-55
2020/10/08 02:49:13;;;;;;;;;9.00;7.75;;;;;;;;3724907;37;20722;-54
2020/10/08 02:51:41;;;;;;;;;11.00;9.00;;;;;;;;3725381;37;20688;-54
2020/10/08 02:54:07;;;;;;;;;7.50;7.00;;;;;;;;3725344;37;20933;-53
2020/10/08 02:56:33;;;;;;;;;8.00;7.00;;;;;;;;3725415;38;20870;-54
2020/10/08 02:59:00;;;;;;;;;10.25;7.25;;;;;;;;3724947;38;17814;-54
2020/10/08 03:01:26;;;;;;;;;8.00;8.00;;;;;;;;3725346;38;17812;-54
2020/10/08 03:03:52;;;;;;;;;3.25;3.25;;;;;;;;3725433;37;20894;-55
2020/10/08 03:06:18;;;;;;;;;9.50;7.25;;;;;;;;3725341;37;17817;-53
2020/10/08 03:08:46;;;;;;;;;9.00;8.25;;;;;;;;3725405;38;17805;-56
2020/10/08 03:11:12;;;;;;;;;8.00;8.00;;;;;;;;3725391;38;20855;-54
2020/10/08 03:13:40;;;;;;;;;5.00;4.75;;;;;;;;3725335;37;20840;-54
2020/10/08 03:16:20;;;;;;;;;7.00;6.00;;;;;;;;3725614;37;20862;-54
2020/10/08 03:18:46;;;;;;;;;6.00;5.00;;;;;;;;3725359;37;20692;-56
2020/10/08 03:21:12;;;;;;;;;9.00;8.00;;;;;;;;3725664;38;20844;-56
2020/10/08 03:23:37;;;;;;;;;9.00;8.75;;;;;;;;3725256;37;20856;-54
2020/10/08 03:26:05;;;;;;;;;9.25;8.00;;;;;;;;3725126;37;17751;-53
2020/10/08 03:28:32;;;;;;;;;10.25;9.00;;;;;;;;3725304;37;17740;-54
2020/10/08 03:30:59;;;;;;;;;7.50;7.25;;;;;;;;3725292;37;20841;-54
2020/10/08 03:33:25;;;;;;;;;12.00;7.00;;;;;;;;3725315;37;20811;-53
2020/10/08 03:35:51;;;;;;;;;10.75;8.00;;;;;;;;3725212;38;17723;-53
2020/10/08 03:38:17;;;;;;;;;9.00;8.00;;;;;;;;3725009;37;17724;-54
2020/10/08 03:40:43;;;;;;;;;11.25;8.75;;;;;;;;3725485;38;17718;-53
2020/10/08 03:43:09;;;;;;;;;10.50;8.00;;;;;;;;3725465;37;17713;-53
2020/10/08 03:45:36;;;;;;;;;10.00;7.75;;;;;;;;3725242;37;20812;-54
2020/10/08 03:48:04;;;;;;;;;12.75;9.25;;;;;;;;3725300;38;20840;-54
2020/10/08 03:50:32;;;;;;;;;11.25;8.75;;;;;;;;3725278;37;20889;-55
2020/10/08 03:52:59;;;;;;;;;7.50;7.00;;;;;;;;3725425;37;20834;-55
2020/10/08 03:55:25;;;;;;;;;7.00;7.00;;;;;;;;3725189;37;20835;-57
2020/10/08 03:58:05;;;;;;;;;10.75;8.75;;;;;;;;3725436;37;17715;-54
2020/10/08 04:00:31;;;;;;;;;10.25;9.25;;;;;;;;3725241;38;20774;-54
2020/10/08 04:03:07;;;;;;;;;10.00;9.00;;;;;;;;3725127;37;20858;-55
2020/10/08 04:05:42;;;;;;;;;9.75;8.25;;;;;;;;3725763;37;17680;-55
2020/10/08 04:08:09;;;;;;;;;9.50;8.00;;;;;;;;3725309;38;20814;-54
2020/10/08 04:10:48;;;;;;;;;10.25;8.50;;;;;;;;3725279;38;20645;-55
2020/10/08 04:13:23;;;;;;;;;8.00;7.00;;;;;;;;3725333;38;20857;-54
2020/10/08 04:15:51;;;;;;;;;10.75;9.00;;;;;;;;3725279;37;20785;-54
2020/10/08 04:18:21;;;;;;;;;8.50;7.50;;;;;;;;3725349;37;20859;-54
2020/10/08 04:20:54;;;;;;;;;9.00;8.25;;;;;;;;3725319;38;20769;-53
2020/10/08 04:23:20;;;;;;;;;13.00;7.50;;;;;;;;3725445;38;20750;-53
2020/10/08 04:26:02;;;;;;;;;7.25;7.25;;;;;;;;3724936;37;20812;-54
2020/10/08 04:28:36;;;;;;;;;10.75;7.75;;;;;;;;3725435;37;20747;-54
2020/10/08 04:31:06;;;;;;;;;8.00;7.00;;;;;;;;3724978;38;20808;-55
2020/10/08 04:33:34;;;;;;;;;9.00;8.00;;;;;;;;3725036;38;20752;-53
2020/10/08 04:36:02;;;;;;;;;10.75;8.50;;;;;;;;3724793;37;20989;-53
2020/10/08 04:38:29;;;;;;;;;11.50;10.00;;;;;;;;3725253;37;20793;-54
2020/10/08 04:40:55;;;;;;;;;11.25;9.00;;;;;;;;3725283;38;20795;-56
2020/10/08 04:43:23;;;;;;;;;10.25;8.00;;;;;;;;3725379;37;20788;-53
2020/10/08 04:45:50;;;;;;;;;11.75;8.50;;;;;;;;3725391;38;20741;-55
2020/10/08 04:48:18;;;;;;;;;7.50;6.00;;;;;;;;3725462;37;20812;-54
2020/10/08 04:50:50;;;;;;;;;11.75;9.00;;;;;;;;3725195;37;20722;-54
2020/10/08 04:53:21;;;;;;;;;13.00;8.75;;;;;;;;3725354;37;20768;-53
2020/10/08 04:55:47;;;;;;;;;15.00;10.00;;;;;;;;3725290;37;21738;-55
2020/10/08 04:58:14;;;;;;;;;12.25;9.25;;;;;;;;3725384;37;20826;-56
2020/10/08 05:00:46;;;;;;;;;9.50;8.00;;;;;;;;3725357;38;20797;-53
2020/10/08 05:03:13;;;;;;;;;8.25;7.25;;;;;;;;3725273;38;21707;-55
2020/10/08 05:05:59;;;;;;;;;9.00;7.75;;;;;;;;3725284;38;21724;-55
2020/10/08 05:08:34;;;;;;;;;10.50;7.75;;;;;;;;3725391;38;21730;-54
2020/10/08 05:11:20;;;;;;;;;12.50;10.50;;;;;;;;3725477;37;21717;-55
2020/10/08 05:13:46;;;;;;;;;9.25;9.00;;;;;;;;3725236;37;20814;-54
2020/10/08 05:16:13;;;;;;;;;8.00;7.25;;;;;;;;3725440;37;21533;-54
2020/10/08 05:18:46;;;;;;;;;9.00;8.00;;;;;;;;3725441;37;18610;-54
2020/10/08 05:21:33;;;;;;;;;11.00;8.25;;;;;;;;3725423;37;21304;-54
2020/10/08 05:24:00;;;;;;;;;12.25;8.75;;;;;;;;3725367;37;21739;-54
2020/10/08 05:26:26;;;;;;;;;8.75;7.50;;;;;;;;3725355;38;21730;-53
2020/10/08 05:29:00;;;;;;;;;12.25;9.00;;;;;;;;3725376;37;21732;-54
2020/10/08 05:31:26;;;;;;;;;10.00;9.25;;;;;;;;3725385;38;21713;-54
2020/10/08 05:33:52;;;;;;;;;9.00;8.00;;;;;;;;3725413;38;21696;-55
2020/10/08 05:36:19;;;;;;;;;11.25;8.00;;;;;;;;3725229;37;21648;-54
2020/10/08 05:38:45;;;;;;;;;9.00;8.75;;;;;;;;3724415;38;21684;-53
2020/10/08 05:41:12;;;;;;;;;10.75;9.00;;;;;;;;3723997;37;18578;-53
2020/10/08 05:43:38;;;;;;;;;9.75;9.75;;;;;;;;3723841;37;21691;-55
2020/10/08 05:46:33;;;;;;;;;14.00;8.75;;;;;;;;3725347;38;21748;-55
2020/10/08 05:48:59;;;;;;;;;13.00;10.25;;;;;;;;3725606;37;21730;-57
2020/10/08 05:51:36;;;;;;;;;13.50;10.00;;;;;;;;3725224;38;21677;-55
2020/10/08 05:54:02;;;;;;;;;11.25;8.75;;;;;;;;3725283;38;21681;-55
2020/10/08 05:56:29;;;;;;;;;11.50;9.50;;;;;;;;3725401;37;21683;-58
2020/10/08 05:58:55;;;;;;;;;12.75;10.50;;;;;;;;3725279;37;21673;-56
2020/10/08 06:01:21;;;;;;;;;11.00;9.50;;;;;;;;3725376;37;21720;-56
2020/10/08 06:03:50;;;;;;;;;16.00;12.00;;;;;;;;3725092;37;21735;-57
2020/10/08 06:06:23;;;;;;;;;14.00;10.50;;;;;;;;3725022;38;21699;-55
2020/10/08 06:09:02;;;;;;;;;10.25;8.25;;;;;;;;3725031;38;21653;-57
2020/10/08 06:11:35;;;;;;;;;16.75;13.25;;;;;;;;3725462;38;21656;-56
2020/10/08 06:14:05;;;;;;;;;16.25;13.75;;;;;;;;3725440;38;21560;-60
2020/10/08 06:16:33;;;;;;;;;26.25;21.00;;;;;;;;3725333;38;21513;-56
2020/10/08 06:19:01;;;;;;;;;20.75;19.50;;;;;;;;3725951;38;21611;-55
2020/10/08 06:21:28;;;;;;;;;23.00;17.50;;;;;;;;3727169;37;21562;-57
2020/10/08 06:23:54;;;;;;;;;21.50;18.75;;;;;;;;3725333;38;21566;-56
2020/10/08 06:26:20;;;;;;;;;26.50;17.25;;;;;;;;3725386;37;21594;-62
2020/10/08 06:28:48;;;;;;;;;22.50;18.75;;;;;;;;3725401;37;21533;-55
2020/10/08 06:31:26;;;;;;;;;20.25;17.25;;;;;;;;3725313;38;21572;-56
2020/10/08 06:33:52;;;;;;;;;27.50;20.25;;;;;;;;3725418;37;21561;-56
2020/10/08 06:36:24;;;;;;;;;26.75;21.75;;;;;;;;3725359;37;21173;-56
2020/10/08 06:38:58;;;;;;;;;26.00;19.50;;;;;;;;3724766;38;21516;-55
2020/10/08 06:41:28;;;;;;;;;25.00;20.75;;;;;;;;3725318;37;21513;-55
2020/10/08 06:44:02;;;;;;;;;25.25;19.50;;;;;;;;3725231;38;21527;-56
2020/10/08 06:46:29;;;;;;;;;22.50;18.75;;;;;;;;3724943;37;21499;-57
2020/10/08 06:48:57;;;;;;;;;21.00;19.00;;;;;;;;3725308;38;21523;-56
2020/10/08 06:51:24;;;;;;;;;23.50;17.50;;;;;;;;3724908;37;21524;-57
2020/10/08 06:54:08;;;;;;;;;26.00;23.50;;;;;;;;3725339;38;21524;-56
2020/10/08 06:56:35;;;;;;;;;22.25;16.75;;;;;;;;3725397;37;21500;-57
2020/10/08 06:59:06;;;;;;;;;21.00;17.25;;;;;;;;3724904;38;21491;-56
2020/10/08 07:02:05;;;;;;;;;24.25;19.50;;;;;;;;3725380;37;21505;-57
2020/10/08 07:04:32;;;;;;;;;20.25;18.00;;;;;;;;3725464;37;21541;-57
2020/10/08 07:07:00;;;;;;;;;20.50;16.75;;;;;;;;3725181;37;21518;-57
2020/10/08 07:09:26;;;;;;;;;19.00;16.00;;;;;;;;3725196;37;18443;-54
2020/10/08 07:11:52;;;;;;;;;29.75;19.25;;;;;;;;3725271;38;21458;-55
2020/10/08 07:14:18;;;;;;;;;23.75;18.00;;;;;;;;3725372;37;18466;-58
2020/10/08 07:16:45;;;;;;;;;23.25;19.75;;;;;;;;3725254;37;21476;-56
2020/10/08 07:19:11;;;;;;;;;21.50;18.75;;;;;;;;3725223;37;21505;-57
2020/10/08 07:21:38;;;;;;;;;20.75;19.00;;;;;;;;3725387;37;21484;-57
2020/10/08 07:24:04;;;;;;;;;25.25;19.00;;;;;;;;3725137;37;21470;-57
2020/10/08 07:26:31;;;;;;;;;18.00;15.25;;;;;;;;3725286;37;21442;-56
2020/10/08 07:28:59;;;;;;;;;19.50;17.50;;;;;;;;3725167;37;18442;-58
2020/10/08 07:31:25;;;;;;;;;19.25;17.50;;;;;;;;3725169;37;21445;-56
2020/10/08 07:33:51;;;;;;;;;19.00;16.00;;;;;;;;3725098;37;21467;-56
2020/10/08 07:36:19;;;;;;;;;19.25;17.50;;;;;;;;3725205;37;21468;-57
2020/10/08 07:38:45;;;;;;;;;18.25;15.50;;;;;;;;3725123;38;21449;-54
2020/10/08 07:41:12;;;;;;;;;17.50;16.00;;;;;;;;3725487;38;18426;-57
2020/10/08 07:43:38;;;;;;;;;21.25;18.00;;;;;;;;3726179;37;21463;-55
2020/10/08 07:46:06;;;;;;;;;18.00;15.00;;;;;;;;3725339;38;21482;-57
2020/10/08 07:48:33;;;;;;;;;17.00;15.50;;;;;;;;3725181;37;21429;-56
2020/10/08 07:50:59;;;;;;;;;16.50;15.25;;;;;;;;3724662;38;21414;-54
2020/10/08 07:53:26;;;;;;;;;21.25;19.25;;;;;;;;3725279;38;21443;-53
2020/10/08 07:55:52;;;;;;;;;18.75;16.25;;;;;;;;3725288;37;21446;-55
2020/10/08 07:58:19;;;;;;;;;16.25;15.50;;;;;;;;3724376;37;18394;-54
2020/10/08 08:00:45;;;;;;;;;19.00;17.00;;;;;;;;3725339;37;21425;-56
2020/10/08 08:03:11;;;;;;;;;19.00;18.25;;;;;;;;3725207;37;21425;-59
2020/10/08 08:05:37;;;;;;;;;20.25;15.50;;;;;;;;3725429;37;18381;-57
2020/10/08 08:08:04;;;;;;;;;20.25;18.00;;;;;;;;3724749;37;21458;-57
2020/10/08 08:10:30;;;;;;;;;20.75;18.50;;;;;;;;3724968;37;21402;-55
2020/10/08 08:12:56;;;;;;;;;26.25;17.75;;;;;;;;3725372;37;18387;-56
2020/10/08 08:15:22;;;;;;;;;18.00;17.75;;;;;;;;3725380;37;18370;-56
2020/10/08 08:17:49;;;;;;;;;22.25;16.25;;;;;;;;3725254;37;18384;-56
2020/10/08 08:20:15;;;;;;;;;17.75;16.25;;;;;;;;3725197;37;21423;-56
2020/10/08 08:22:41;;;;;;;;;16.00;15.00;;;;;;;;3725172;37;21410;-56
2020/10/08 08:25:07;;;;;;;;;17.50;14.00;;;;;;;;3726646;37;18370;-55
2020/10/08 08:27:34;;;;;;;;;20.50;15.75;;;;;;;;3728349;38;18338;-54
2020/10/08 08:30:01;;;;;;;;;17.25;14.50;;;;;;;;3725142;38;21318;-57
2020/10/08 08:32:29;;;;;;;;;21.00;18.25;;;;;;;;3725447;38;21409;-60
2020/10/08 08:34:54;;;;;;;;;24.75;18.00;;;;;;;;3725084;37;21374;-57
2020/10/08 08:37:22;;;;;;;;;18.50;16.75;;;;;;;;3725723;37;21385;-54
2020/10/08 08:39:48;;;;;;;;;19.50;17.75;;;;;;;;3726106;38;21382;-55
2020/10/08 08:42:14;;;;;;;;;18.50;17.75;;;;;;;;3725444;37;21368;-56
2020/10/08 08:44:40;;;;;;;;;25.00;20.25;;;;;;;;3725533;37;21355;-55
2020/10/08 08:47:06;;;;;;;;;26.75;18.75;;;;;;;;3725434;37;18322;-56
2020/10/08 08:49:32;;;;;;;;;21.25;18.25;;;;;;;;3725247;37;18309;-53
2020/10/08 08:51:59;;;;;;;;;21.75;18.25;;;;;;;;3725147;37;21351;-56
2020/10/08 08:54:24;;;;;;;;;23.25;17.25;;;;;;;;3725296;37;18299;-55
2020/10/08 08:56:51;;;;;;;;;20.00;16.75;;;;;;;;3725344;38;21341;-56
2020/10/08 08:59:17;;;;;;;;;20.25;16.50;;;;;;;;3725196;38;18313;-52
2020/10/08 09:01:43;;;;;;;;;23.50;18.00;;;;;;;;3725323;37;21378;-55
2020/10/08 09:04:10;;;;;;;;;23.25;19.50;;;;;;;;3725410;38;21345;-55
2020/10/08 09:06:36;;;;;;;;;28.25;20.25;;;;;;;;3725122;38;21313;-57
2020/10/08 09:09:02;;;;;;;;;20.50;16.00;;;;;;;;3725179;38;18296;-54
2020/10/08 09:11:29;;;;;;;;;27.75;23.25;;;;;;;;3725333;37;18289;-57
2020/10/08 09:13:56;;;;;;;;;22.50;20.00;;;;;;;;3725370;37;18293;-56
2020/10/08 09:16:22;;;;;;;;;29.75;22.75;;;;;;;;3725135;37;21332;-55
2020/10/08 09:18:48;;;;;;;;;26.25;21.50;;;;;;;;3725142;38;21323;-54
2020/10/08 09:21:15;;;;;;;;;24.75;21.50;;;;;;;;3725378;37;18284;-56
2020/10/08 09:23:41;;;;;;;;;23.25;20.00;;;;;;;;3725192;37;18273;-55
2020/10/08 09:26:07;;;;;;;;;21.50;18.00;;;;;;;;3725198;37;21313;-55
2020/10/08 09:28:33;;;;;;;;;25.50;20.50;;;;;;;;3725199;37;21301;-55
2020/10/08 09:30:59;;;;;;;;;20.75;17.25;;;;;;;;3725295;37;18275;-55
2020/10/08 09:33:25;;;;;;;;;23.00;19.25;;;;;;;;3726094;38;18270;-54
2020/10/08 09:35:51;;;;;;;;;22.50;20.25;;;;;;;;3725977;37;18264;-55
2020/10/08 09:38:18;;;;;;;;;22.25;15.25;;;;;;;;3725775;38;18258;-55
2020/10/08 09:40:44;;;;;;;;;19.75;17.00;;;;;;;;3725425;37;18241;-54
2020/10/08 09:43:10;;;;;;;;;22.50;19.75;;;;;;;;3725370;37;21326;-55
2020/10/08 09:45:36;;;;;;;;;23.00;19.50;;;;;;;;3725308;37;21264;-56
2020/10/08 09:48:11;;;;;;;;;22.50;19.25;;;;;;;;3725329;37;21321;-55
2020/10/08 09:50:37;;;;;;;;;23.00;20.25;;;;;;;;3725337;37;21276;-54
2020/10/08 09:53:03;;;;;;;;;23.75;21.75;;;;;;;;3725476;38;21296;-55
2020/10/08 09:55:30;;;;;;;;;23.25;19.25;;;;;;;;3725270;37;21280;-54
2020/10/08 09:57:57;;;;;;;;;23.75;19.50;;;;;;;;3725281;38;21243;-55
2020/10/08 10:00:24;;;;;;;;;20.00;17.00;;;;;;;;3725243;38;21254;-56
2020/10/08 10:02:51;;;;;;;;;23.75;20.00;;;;;;;;3725267;38;21241;-55
2020/10/08 10:05:19;;;;;;;;;19.50;18.50;;;;;;;;3725277;38;21271;-57
2020/10/08 10:07:45;;;;;;;;;21.00;16.00;;;;;;;;3725260;38;21352;-56
2020/10/08 10:10:17;;;;;;;;;23.00;18.75;;;;;;;;3725096;37;21258;-54
2020/10/08 10:12:43;;;;;;;;;23.50;18.75;;;;;;;;3725090;38;21235;-56
2020/10/08 10:15:10;;;;;;;;;19.50;16.25;;;;;;;;3725182;38;21189;-56
2020/10/08 10:17:36;;;;;;;;;20.50;17.75;;;;;;;;3725195;38;21225;-53
2020/10/08 10:20:03;;;;;;;;;19.00;17.50;;;;;;;;3725299;37;21221;-55
2020/10/08 10:22:33;;;;;;;;;21.00;17.00;;;;;;;;3725309;38;20939;-55
2020/10/08 10:25:00;;;;;;;;;22.00;17.00;;;;;;;;3725316;37;21231;-54
2020/10/08 10:27:27;;;;;;;;;22.25;18.00;;;;;;;;3725330;37;21271;-55
2020/10/08 10:29:55;;;;;;;;;20.25;17.75;;;;;;;;3725292;37;21194;-57
2020/10/08 10:32:22;;;;;;;;;21.00;18.00;;;;;;;;3724967;38;18203;-55
2020/10/08 10:34:48;;;;;;;;;16.25;14.50;;;;;;;;3725093;38;21240;-56
2020/10/08 10:37:17;;;;;;;;;16.25;14.50;;;;;;;;3725339;37;21217;-55
2020/10/08 10:40:08;;;;;;;;;26.50;18.00;;;;;;;;3725500;37;21213;-52
2020/10/08 10:42:35;;;;;;;;;17.50;15.75;;;;;;;;3725362;37;21257;-55
2020/10/08 10:45:01;;;;;;;;;15.75;14.75;;;;;;;;3725439;38;21138;-54
2020/10/08 10:47:27;;;;;;;;;20.75;16.75;;;;;;;;3725346;38;21239;-53
2020/10/08 10:49:55;;;;;;;;;19.75;16.00;;;;;;;;3725234;37;21173;-54
2020/10/08 10:52:24;;;;;;;;;16.00;15.25;;;;;;;;3725057;38;21196;-53
2020/10/08 10:54:50;;;;;;;;;18.00;16.00;;;;;;;;3725319;38;21203;-53
2020/10/08 10:57:17;;;;;;;;;21.00;19.00;;;;;;;;3725391;38;18135;-53
2020/10/08 10:59:43;;;;;;;;;17.00;15.25;;;;;;;;3725112;37;21190;-53
2020/10/08 11:02:11;;;;;;;;;17.00;15.75;;;;;;;;3725483;37;18150;-55
2020/10/08 11:04:41;;;;;;;;;15.50;15.50;;;;;;;;3725029;37;18151;-53
2020/10/08 11:07:07;;;;;;;;;18.00;15.25;;;;;;;;3725330;37;21183;-54
2020/10/08 11:09:38;;;;;;;;;13.00;13.00;;;;;;;;3725118;38;21153;-51
2020/10/08 11:12:11;;;;;;;;;17.75;15.25;;;;;;;;3725546;37;21191;-51
2020/10/08 11:14:38;;;;;;;;;15.25;14.00;;;;;;;;3725590;37;20648;-54
2020/10/08 11:17:12;;;;;;;;;13.25;13.25;;;;;;;;3725759;37;20630;-55
2020/10/08 11:19:38;;;;;;;;;15.25;14.00;;;;;;;;3725896;37;20643;-54
2020/10/08 11:22:05;;;;;;;;;15.25;14.25;;;;;;;;3726150;37;20729;-56
2020/10/08 11:24:34;;;;;;;;;19.75;16.75;;;;;;;;3725507;38;20634;-55
2020/10/08 11:27:00;;;;;;;;;16.75;16.00;;;;;;;;3726281;37;20637;-55
2020/10/08 11:29:26;;;;;;;;;18.00;15.00;;;;;;;;3726740;38;20645;-53
2020/10/08 11:31:52;;;;;;;;;13.50;13.25;;;;;;;;3725957;37;20699;-53
2020/10/08 11:34:18;;;;;;;;;18.75;15.00;;;;;;;;3725661;38;20631;-55
2020/10/08 11:36:44;;;;;;;;;17.25;17.25;;;;;;;;3725466;37;20622;-55
2020/10/08 11:39:28;;;;;;;;;16.25;14.75;;;;;;;;3725377;37;18031;-55
2020/10/08 11:41:56;;;;;;;;;17.75;16.25;;;;;;;;3725628;38;20645;-55
2020/10/08 11:44:23;;;;;;;;;15.50;15.00;;;;;;;;3725528;37;20610;-55
2020/10/08 11:46:49;;;;;;;;;16.50;14.00;;;;;;;;3725325;38;20622;-53
2020/10/08 11:49:16;;;;;;;;;15.50;13.00;;;;;;;;3725495;37;20714;-55
2020/10/08 11:51:42;;;;;;;;;16.75;15.00;;;;;;;;3725428;37;20612;-55
2020/10/08 11:54:09;;;;;;;;;15.75;15.00;;;;;;;;3725413;37;18032;-56
2020/10/08 11:56:36;;;;;;;;;13.00;12.50;;;;;;;;3725403;38;18002;-55
2020/10/08 11:59:02;;;;;;;;;13.00;13.00;;;;;;;;3724996;38;20713;-54
2020/10/08 12:01:28;;;;;;;;;17.50;14.00;;;;;;;;3725468;37;20588;-56
2020/10/08 12:03:55;;;;;;;;;13.75;13.00;;;;;;;;3725308;38;20699;-53
2020/10/08 12:06:21;;;;;;;;;17.50;16.00;;;;;;;;3725598;37;20638;-54
2020/10/08 12:08:47;;;;;;;;;14.50;14.00;;;;;;;;3725449;38;20580;-52
2020/10/08 12:11:15;;;;;;;;;14.00;13.00;;;;;;;;3725589;38;20573;-54
2020/10/08 12:13:42;;;;;;;;;15.75;13.50;;;;;;;;3725235;37;21067;-53
2020/10/08 12:16:12;;;;;;;;;14.25;12.75;;;;;;;;3725394;38;21284;-53
2020/10/08 12:18:39;;;;;;;;;12.25;11.00;;;;;;;;3725204;38;21106;-55
2020/10/08 12:21:06;;;;;;;;;15.25;14.25;;;;;;;;3725264;38;21036;-55
2020/10/08 12:23:33;;;;;;;;;13.50;12.75;;;;;;;;3725330;37;21114;-54
2020/10/08 12:25:59;;;;;;;;;15.25;14.00;;;;;;;;3724795;38;21234;-54
2020/10/08 12:28:26;;;;;;;;;15.75;13.75;;;;;;;;3725043;38;21241;-54
2020/10/08 12:30:53;;;;;;;;;15.00;13.25;;;;;;;;3725288;37;18052;-57
2020/10/08 12:33:20;;;;;;;;;11.75;11.25;;;;;;;;3725621;38;21234;-55
2020/10/08 12:35:46;;;;;;;;;18.00;14.25;;;;;;;;3725338;37;21226;-55
2020/10/08 12:38:12;;;;;;;;;12.75;11.25;;;;;;;;3725343;37;21252;-54
2020/10/08 12:40:40;;;;;;;;;14.00;12.50;;;;;;;;3725355;38;21179;-56
2020/10/08 12:43:08;;;;;;;;;11.75;10.00;;;;;;;;3725739;38;21263;-56
2020/10/08 12:45:34;;;;;;;;;13.00;11.75;;;;;;;;3725091;38;21149;-55
2020/10/08 12:48:00;;;;;;;;;11.50;11.50;;;;;;;;3725239;37;21231;-58
2020/10/08 12:50:26;;;;;;;;;13.50;11.50;;;;;;;;3725089;38;21039;-54
2020/10/08 12:52:53;;;;;;;;;13.00;11.75;;;;;;;;3725387;38;21012;-55
2020/10/08 12:55:19;;;;;;;;;14.00;13.00;;;;;;;;3724763;37;18225;-55
2020/10/08 12:57:45;;;;;;;;;13.75;12.25;;;;;;;;3725409;38;21229;-56
2020/10/08 13:00:11;;;;;;;;;12.75;11.00;;;;;;;;3725969;38;21223;-55
2020/10/08 13:02:37;;;;;;;;;14.00;12.25;;;;;;;;3725672;38;17992;-54
2020/10/08 13:05:05;;;;;;;;;13.00;10.75;;;;;;;;3725412;38;21161;-55
2020/10/08 13:07:31;;;;;;;;;14.75;12.75;;;;;;;;3725228;38;21148;-54
2020/10/08 13:09:59;;;;;;;;;11.50;10.25;;;;;;;;3725323;38;21213;-53
2020/10/08 13:12:25;;;;;;;;;15.50;13.00;;;;;;;;3725249;38;21367;-58
2020/10/08 13:14:52;;;;;;;;;15.00;12.75;;;;;;;;3725597;38;21191;-55
2020/10/08 13:17:18;;;;;;;;;12.75;11.75;;;;;;;;3725360;37;21005;-54
2020/10/08 13:19:44;;;;;;;;;15.50;13.00;;;;;;;;3725304;37;20980;-54
2020/10/08 13:22:10;;;;;;;;;13.25;13.00;;;;;;;;3725733;37;17978;-54
2020/10/08 13:24:36;;;;;;;;;15.25;10.75;;;;;;;;3727155;38;17952;-55
2020/10/08 13:27:02;;;;;;;;;15.75;11.25;;;;;;;;3725393;37;20994;-56
2020/10/08 13:29:31;;;;;;;;;14.25;12.50;;;;;;;;3725306;37;20982;-55
2020/10/08 13:31:58;;;;;;;;;14.75;12.25;;;;;;;;3725318;38;20988;-55
2020/10/08 13:34:24;;;;;;;;;12.50;11.25;;;;;;;;3725294;38;21119;-56
2020/10/08 13:36:51;;;;;;;;;13.25;11.25;;;;;;;;3725157;37;21398;-56
2020/10/08 13:39:24;;;;;;;;;12.50;11.75;;;;;;;;3725199;37;21004;-55
2020/10/08 13:41:51;;;;;;;;;15.50;11.50;;;;;;;;3725257;38;21059;-56
2020/10/08 13:44:21;;;;;;;;;11.75;11.00;;;;;;;;3725267;37;21122;-58
2020/10/08 13:46:48;;;;;;;;;11.50;11.25;;;;;;;;3725365;37;20941;-53
2020/10/08 13:49:16;;;;;;;;;13.00;12.00;;;;;;;;3725157;37;20922;-57
2020/10/08 13:51:42;;;;;;;;;14.00;11.75;;;;;;;;3725305;37;20852;-54
2020/10/08 13:54:09;;;;;;;;;10.75;9.00;;;;;;;;3725232;38;21077;-55
2020/10/08 13:56:35;;;;;;;;;11.50;10.25;;;;;;;;3724875;38;17929;-53
2020/10/08 13:59:03;;;;;;;;;10.50;10.25;;;;;;;;3725359;37;20851;-54
2020/10/08 14:01:31;;;;;;;;;16.00;12.00;;;;;;;;3725771;37;20905;-55
2020/10/08 14:03:57;;;;;;;;;12.25;11.50;;;;;;;;3725421;37;20924;-54
2020/10/08 14:06:23;;;;;;;;;10.75;9.00;;;;;;;;3725745;37;21090;-56
2020/10/08 14:08:50;;;;;;;;;11.50;9.75;;;;;;;;3725174;37;17902;-55
2020/10/08 14:11:17;;;;;;;;;9.75;9.50;;;;;;;;3725849;38;17894;-58
2020/10/08 14:13:53;;;;;;;;;9.00;8.25;;;;;;;;3725366;37;20973;-55
2020/10/08 14:16:20;;;;;;;;;11.00;10.50;;;;;;;;3725268;38;20791;-57
2020/10/08 14:18:48;;;;;;;;;8.50;6.50;;;;;;;;3725399;37;20984;-55
2020/10/08 14:21:33;;;;;;;;;11.00;10.25;;;;;;;;3725259;38;21034;-54
2020/10/08 14:24:01;;;;;;;;;10.25;9.75;;;;;;;;3725269;38;21028;-54
2020/10/08 14:26:27;;;;;;;;;11.25;10.00;;;;;;;;3725278;37;21033;-56
2020/10/08 14:28:53;;;;;;;;;10.00;8.75;;;;;;;;3725217;37;21035;-56
2020/10/08 14:31:20;;;;;;;;;9.50;9.00;;;;;;;;3725262;37;21052;-53